Briefing drone pour Moussan

Rechercher une autre localisation

Conditions de vol :


Nous sommes le : Mardi 13 avril 2021
Il est 21:45 UTC (23:45 LT)

Lever de soleil : 04:42 UTC (06:42 LT)
Coucher de soleil : 18:55 UTC (20:55 LT)

Météo

L'essentiel des conditions de vol

VIGILANCE MÉTÉO FRANCE - Aude (11)
Pas de vigilances particulieres
METAR de LFMU
LFMU 132130Z AUTO 04006KT CAVOK 10/M00 Q1023

Date d'émission: 13/04/2021
Heure d'émission: 21:30 UTC
Vent: 040° pour 6 KT (11 km/h)
Visibilité horizontale: > 10 km
Plafond : Plafond et visibilité OK (CAVOK)
Température: 10 °C
Point de rosée: 0 °C
Humidité: 50%
Pression (QNH): 1023 hPa
TAF de LFMU
LFMU 132030Z 1320/1415 CNL

Conditions prévues :

Heure d'émission : Bulletin éffectué le 13 à 20:00 UTC
Prévision : Valide du 13 a 20:00 UTC au 14 a 15:00 UTC
Nuages : à 0ft (0 m)
WEBCAM POUR MOUSSAN

Réglementation

Voler en sécurité

CARTES AERONAUTIQUE 1/500.000
CARTES VAC (LFMU)
SUP AIP




Chargement des AIP...
NOTAM (MOUSSAN + Terrain à proximité / FIR )




Chargement des NOTAMS...
CONTACT PREFECTURE 11


Avertissement : Les données mises à disposition sont indicatives. Oxygène Drone ne pourra être tenu responsable de dégâts causés aux biens et aux personnes.